createdAt,value
2022-10-14T00:03:18.657Z,99339.78
2022-10-14T00:13:20.142Z,99327.97
2022-10-14T00:23:25.241Z,99330.34
2022-10-14T00:33:29.886Z,99326.69
2022-10-14T00:43:57.879Z,99319.03
2022-10-14T00:54:02.061Z,99322.09
2022-10-14T01:04:03.831Z,99321.69
2022-10-14T01:14:31.540Z,99320.63
2022-10-14T01:24:42.100Z,99309.44
2022-10-14T01:34:48.726Z,99293.72
2022-10-14T01:45:06.090Z,99277.38
2022-10-14T01:55:09.838Z,99262.09
2022-10-14T02:05:36.269Z,99246.75
2022-10-14T02:15:43.873Z,99237.03
2022-10-14T02:25:46.690Z,99236.22
2022-10-14T02:35:48.117Z,99221.75
2022-10-14T02:45:49.493Z,99224.00
2022-10-14T02:55:50.867Z,99226.06
2022-10-14T03:05:52.252Z,99206.63
2022-10-14T03:15:53.620Z,99202.06
2022-10-14T03:25:54.987Z,99200.00
2022-10-14T03:35:56.402Z,99188.44
2022-10-14T03:45:57.781Z,99187.19
2022-10-14T03:55:59.290Z,99176.84
2022-10-14T04:06:00.692Z,99171.06
2022-10-14T04:16:06.403Z,99178.94
2022-10-14T04:26:08.075Z,99177.09
2022-10-14T04:36:09.562Z,99169.44
2022-10-14T04:46:13.511Z,99165.28
2022-10-14T04:56:15.051Z,99161.53
2022-10-14T05:06:16.578Z,99151.00
2022-10-14T05:16:18.250Z,99129.66
2022-10-14T05:26:19.811Z,99126.56
2022-10-14T05:36:21.173Z,99124.50
2022-10-14T05:46:22.592Z,99111.03
2022-10-14T05:56:24.091Z,99114.13
2022-10-14T06:06:28.961Z,99113.50
2022-10-14T06:16:30.861Z,99107.09
2022-10-14T06:26:32.606Z,99102.09
2022-10-14T06:36:34.465Z,99106.44
2022-10-14T06:46:35.841Z,99103.53
2022-10-14T06:56:37.310Z,99091.34
2022-10-14T07:06:38.703Z,99093.22
2022-10-14T07:16:40.092Z,99097.75
2022-10-14T07:26:41.513Z,99084.94
2022-10-14T07:36:42.893Z,99088.25
2022-10-14T07:46:44.831Z,99081.22
2022-10-14T07:56:46.652Z,99082.06
2022-10-14T08:06:48.659Z,99085.56
2022-10-14T08:16:50.054Z,99079.13
2022-10-14T08:26:53.247Z,99074.56
2022-10-14T08:36:54.647Z,99065.44
2022-10-14T08:46:59.792Z,99043.47
2022-10-14T08:57:01.200Z,99033.13
2022-10-14T09:07:02.729Z,99024.41
2022-10-14T09:27:24.267Z,99011.75
2022-10-14T09:37:32.714Z,99005.28
2022-10-14T09:47:46.178Z,98992.00
2022-10-14T09:57:47.614Z,98994.69
2022-10-14T10:08:01.435Z,98979.00
2022-10-14T10:18:04.102Z,98976.88
2022-10-14T10:28:05.468Z,98971.72
2022-10-14T10:38:11.243Z,98967.19
2022-10-14T10:48:18.884Z,98953.94
2022-10-14T10:58:44.205Z,98941.50
2022-10-14T11:09:11.900Z,98923.06
2022-10-14T11:19:15.723Z,98906.66
2022-10-14T11:29:38.563Z,98902.75
2022-10-14T11:39:49.806Z,98900.09
2022-10-14T11:49:59.523Z,98886.63
2022-10-14T12:00:14.006Z,98876.06
2022-10-14T12:10:27.681Z,98865.91
2022-10-14T12:20:47.556Z,98870.34
2022-10-14T12:30:49.030Z,98858.06
2022-10-14T12:40:50.521Z,98840.91
2022-10-14T12:51:09.677Z,98823.78
2022-10-14T13:01:19.228Z,98829.97
2022-10-14T13:11:27.816Z,98809.31
2022-10-14T13:21:36.323Z,98781.34
2022-10-14T13:32:06.921Z,98783.81
2022-10-14T13:42:15.395Z,98759.41
2022-10-14T13:52:20.780Z,98758.53
2022-10-14T14:02:25.832Z,98759.41
2022-10-14T14:12:27.286Z,98761.88
2022-10-14T14:22:30.182Z,98766.66
2022-10-14T14:32:31.952Z,98760.50
2022-10-14T14:42:36.041Z,98746.91
2022-10-14T14:52:41.592Z,98732.78
2022-10-14T15:02:42.968Z,98731.13
2022-10-14T15:12:52.618Z,98738.00
2022-10-14T15:22:53.997Z,98723.25
2022-10-14T15:32:57.290Z,98717.63
2022-10-14T15:42:58.748Z,98703.66
2022-10-14T15:53:00.173Z,98681.34
2022-10-14T16:03:03.627Z,98694.84
2022-10-14T16:13:05.131Z,98684.66
2022-10-14T16:23:06.794Z,98683.06
2022-10-14T16:33:09.322Z,98688.06
2022-10-14T16:43:10.723Z,98675.66
2022-10-14T16:53:30.737Z,98676.47
2022-10-14T17:03:32.125Z,98677.13
2022-10-14T17:13:33.561Z,98690.06
2022-10-14T17:23:35.617Z,98687.84
2022-10-14T17:33:38.135Z,98677.41
2022-10-14T17:43:39.653Z,98667.25
2022-10-14T17:53:41.177Z,98655.72
2022-10-14T18:03:43.540Z,98653.63
2022-10-14T18:13:51.786Z,98663.38
2022-10-14T18:23:53.464Z,98671.31
2022-10-14T18:33:55.341Z,98670.69
2022-10-14T18:43:57.980Z,98638.94
2022-10-14T18:54:00.277Z,98650.69
2022-10-14T19:04:02.196Z,98634.75
2022-10-14T19:14:03.888Z,98630.88
2022-10-14T19:24:06.977Z,98630.31
2022-10-14T19:34:09.764Z,98631.13
2022-10-14T19:44:11.676Z,98624.97
2022-10-14T19:54:13.174Z,98604.88
2022-10-14T20:04:14.594Z,98596.53
2022-10-14T20:14:18.341Z,98597.56
2022-10-14T20:24:19.760Z,98584.47
2022-10-14T20:34:21.306Z,98594.06
2022-10-14T20:44:23.950Z,98585.44
2022-10-14T20:54:25.648Z,98587.53
2022-10-14T21:04:27.054Z,98558.56
2022-10-14T21:14:28.451Z,98580.59
2022-10-14T21:24:30.043Z,98582.00
2022-10-14T21:34:31.534Z,98558.06
2022-10-14T21:44:33.025Z,98571.41
2022-10-14T21:54:34.984Z,98573.28
2022-10-14T22:04:38.292Z,98559.84
2022-10-14T22:15:14.417Z,98550.31
2022-10-14T22:25:21.699Z,98546.31
2022-10-14T22:35:26.072Z,98558.56
2022-10-14T22:45:30.745Z,98545.88
2022-10-14T22:55:33.387Z,98551.03
2022-10-14T23:05:34.999Z,98552.00
2022-10-14T23:15:37.747Z,98547.66
2022-10-14T23:25:51.704Z,98545.50
2022-10-14T23:35:56.165Z,98555.00
2022-10-14T23:45:57.998Z,98545.88
2022-10-14T23:56:01.988Z,98544.22
